Terminal Aerodrome Forecast
Issued by NWS Goodland, KS

Home | Current Version | Previous Version | Text Only | Print | Product List | Glossary On
Versions: 1 2 3 4 5 6 7 8 9 10 11 12 13 14 15 16 17
000
FTUS43 KGLD 040210 AAA
TAFGLD
TAF AMD
KGLD 040210Z 0402/0424 16013KT P6SM BKN250
     FM040300 29015G23KT P6SM VCTS BKN150CB
     FM040400 27010KT P6SM SCT250
     FM041800 18011KT P6SM SCT250=

USA.gov is the U.S. government's official web portal to all federal, state and local government web resources and services.